Time;durP1;ratioP1;P1;durP2;ratioP2;P2;SDS_P1;SDS_P2;PMS_P1;PMS_P2;Temp;Humidity;BMP_temperature;BMP_pressure;BME280_temperature;BME280_humidity;BME280_pressure;Samples;Min_cycle;Max_cycle;Signal;HPM_P1;HPM_P2
2022/10/26 00:01:19;;;;;;;6.50;4.00;;;;;;;6.91;100.00;101075.28;4947264;28;20614;-72
2022/10/26 00:03:46;;;;;;;4.70;3.90;;;;;;;6.90;100.00;101073.56;4950628;28;20323;-72
2022/10/26 00:06:16;;;;;;;4.00;3.40;;;;;;;6.90;100.00;101075.28;4951829;28;20203;-72
2022/10/26 00:08:43;;;;;;;4.37;3.30;;;;;;;6.91;100.00;101077.88;4949923;28;20227;-72
2022/10/26 00:11:11;;;;;;;7.27;3.70;;;;;;;6.90;100.00;101072.69;4930223;28;20207;-72
2022/10/26 00:13:40;;;;;;;4.30;3.83;;;;;;;6.87;100.00;101070.97;4951262;28;20208;-71
2022/10/26 00:16:11;;;;;;;5.97;3.63;;;;;;;6.90;100.00;101070.97;4951703;28;20844;-72
2022/10/26 00:18:38;;;;;;;7.17;3.50;;;;;;;6.89;100.00;101079.59;4946842;28;20228;-71
2022/10/26 00:21:05;;;;;;;5.17;3.30;;;;;;;6.89;100.00;101076.16;4948530;28;20215;-72
2022/10/26 00:23:33;;;;;;;4.53;3.43;;;;;;;6.92;100.00;101078.75;4950179;28;20678;-72
2022/10/26 00:26:00;;;;;;;6.80;3.90;;;;;;;6.90;100.00;101080.47;4945854;28;20787;-71
2022/10/26 00:28:27;;;;;;;6.37;4.07;;;;;;;6.93;100.00;101083.03;4950776;28;20817;-71
2022/10/26 00:30:53;;;;;;;7.40;3.70;;;;;;;6.88;100.00;101083.06;4946223;28;20213;-72
2022/10/26 00:33:20;;;;;;;4.07;3.27;;;;;;;6.86;100.00;101084.81;4952206;28;20222;-72
2022/10/26 00:35:47;;;;;;;4.83;3.83;;;;;;;6.92;100.00;101087.38;4950803;28;20196;-72
2022/10/26 00:38:14;;;;;;;7.97;3.07;;;;;;;6.93;100.00;101085.63;4932269;28;20257;-72
2022/10/26 00:40:43;;;;;;;5.73;3.27;;;;;;;6.90;100.00;101089.09;4931478;28;20724;-72
2022/10/26 00:43:32;;;;;;;6.43;4.27;;;;;;;6.88;100.00;101092.56;4951525;28;20302;-72
2022/10/26 00:45:59;;;;;;;4.87;3.23;;;;;;;6.81;100.00;101094.34;4946168;28;20288;-72
2022/10/26 00:48:29;;;;;;;3.77;3.27;;;;;;;6.75;100.00;101091.75;4947849;28;20265;-72
2022/10/26 00:50:58;;;;;;;6.10;3.60;;;;;;;6.75;100.00;101091.75;4950213;28;20210;-71
2022/10/26 00:53:25;;;;;;;7.13;3.37;;;;;;;6.69;100.00;101091.78;4947750;28;20231;-72
2022/10/26 00:55:53;;;;;;;4.07;3.30;;;;;;;6.70;100.00;101089.19;4945273;28;20203;-72
2022/10/26 00:58:22;;;;;;;5.87;3.47;;;;;;;6.74;100.00;101090.03;4946750;28;20223;-72
2022/10/26 01:00:49;;;;;;;5.07;3.33;;;;;;;6.75;100.00;101082.22;4948316;28;20607;-72
2022/10/26 01:03:17;;;;;;;6.30;3.63;;;;;;;6.82;100.00;101089.16;4949597;28;20202;-72
2022/10/26 01:05:46;;;;;;;4.97;3.17;;;;;;;6.78;100.00;101090.00;4948800;28;20578;-72
2022/10/26 01:08:14;;;;;;;6.33;3.03;;;;;;;6.69;100.00;101090.03;4952317;28;20222;-71
2022/10/26 01:10:42;;;;;;;4.40;2.87;;;;;;;6.72;100.00;101078.78;4947022;28;20211;-72
2022/10/26 01:13:11;;;;;;;4.27;3.40;;;;;;;6.75;100.00;101077.03;4947998;28;20226;-72
2022/10/26 01:15:48;;;;;;;7.90;4.13;;;;;;;6.75;100.00;101069.28;4944929;28;20203;-72
2022/10/26 01:18:25;;;;;;;5.20;4.17;;;;;;;6.69;100.00;101069.31;4941481;28;20314;-72
2022/10/26 01:21:29;;;;;;;7.10;4.47;;;;;;;6.70;100.00;101078.81;4946665;28;20206;-72
2022/10/26 01:24:12;;;;;;;7.50;3.77;;;;;;;6.59;100.00;101078.81;4948215;28;20204;-72
2022/10/26 01:26:53;;;;;;;5.77;3.33;;;;;;;6.59;100.00;101077.97;4947902;28;20206;-71
2022/10/26 01:29:37;;;;;;;3.90;2.77;;;;;;;6.63;100.00;101072.78;4945425;28;20589;-71
2022/10/26 01:32:13;;;;;;;5.70;3.10;;;;;;;6.51;100.00;101075.41;4948416;28;20209;-72
2022/10/26 01:34:45;;;;;;;7.77;3.63;;;;;;;6.48;100.00;101084.91;4947127;28;20195;-71
2022/10/26 01:37:14;;;;;;;4.67;3.80;;;;;;;6.40;100.00;101079.72;4949340;28;20199;-71
2022/10/26 01:39:46;;;;;;;6.07;3.33;;;;;;;6.40;100.00;101078.03;4950029;28;20202;-72
2022/10/26 01:42:17;;;;;;;4.30;3.60;;;;;;;6.51;100.00;101080.59;4946844;28;20209;-71
2022/10/26 01:44:49;;;;;;;3.40;3.07;;;;;;;6.50;100.00;101088.34;4950086;28;20212;-72
2022/10/26 01:47:19;;;;;;;3.17;2.60;;;;;;;6.43;100.00;101071.97;4928122;28;20207;-72
2022/10/26 01:49:49;;;;;;;5.97;2.83;;;;;;;6.50;100.00;101080.59;4966871;28;20751;-72
2022/10/26 01:52:17;;;;;;;5.17;3.17;;;;;;;6.49;100.00;101078.84;4967455;28;20583;-71
2022/10/26 01:54:44;;;;;;;5.57;2.93;;;;;;;6.42;100.00;101078.00;4964286;28;20249;-72
2022/10/26 01:57:14;;;;;;;3.67;3.13;;;;;;;6.43;100.00;101075.41;4959748;28;20197;-72
2022/10/26 02:00:01;;;;;;;5.77;3.33;;;;;;;6.53;100.00;101078.00;4964833;28;20210;-72
2022/10/26 02:02:52;;;;;;;4.23;3.67;;;;;;;6.39;100.00;101078.88;4964960;28;20205;-72
2022/10/26 02:05:44;;;;;;;4.03;3.00;;;;;;;6.21;100.00;101065.97;4963189;28;20206;-72
2022/10/26 02:08:26;;;;;;;4.73;4.03;;;;;;;6.28;100.00;101070.25;4963574;28;20218;-71
2022/10/26 02:11:02;;;;;;;7.50;3.80;;;;;;;6.34;100.00;101074.56;4962711;28;20705;-72
2022/10/26 02:13:36;;;;;;;5.60;3.30;;;;;;;6.33;100.00;101072.84;4965334;28;20213;-71
2022/10/26 02:16:14;;;;;;;4.67;3.47;;;;;;;6.18;100.00;101071.13;4966377;28;20202;-72
2022/10/26 02:18:51;;;;;;;3.80;3.40;;;;;;;6.17;100.00;101069.41;4965050;28;20214;-72
2022/10/26 02:21:21;;;;;;;3.50;2.73;;;;;;;6.09;100.00;101064.25;4964521;28;20209;-72
2022/10/26 02:23:49;;;;;;;5.47;3.67;;;;;;;6.09;100.00;101068.56;4965950;28;20199;-72
2022/10/26 02:26:19;;;;;;;4.40;3.23;;;;;;;6.06;100.00;101064.22;4966906;28;20540;-72
2022/10/26 02:28:48;;;;;;;5.33;3.90;;;;;;;6.13;100.00;101059.91;4966425;28;20225;-72
2022/10/26 02:31:15;;;;;;;6.13;4.20;;;;;;;6.15;100.00;101056.44;4967800;28;20202;-72
2022/10/26 02:33:47;;;;;;;6.03;3.67;;;;;;;6.03;100.00;101056.47;4964694;28;20713;-72
2022/10/26 02:36:19;;;;;;;5.93;3.80;;;;;;;5.92;100.00;101060.75;4964151;28;20287;-72
2022/10/26 02:38:47;;;;;;;5.53;3.63;;;;;;;5.77;100.00;101059.91;4965757;28;20458;-72
2022/10/26 02:41:16;;;;;;;4.20;3.47;;;;;;;5.91;100.00;101066.78;4964586;28;20491;-72
2022/10/26 02:43:48;;;;;;;6.63;4.00;;;;;;;5.84;100.00;101065.91;4966770;28;20702;-72
2022/10/26 02:46:20;;;;;;;6.20;3.87;;;;;;;5.79;100.00;101067.66;4964743;28;20201;-72
2022/10/26 02:48:48;;;;;;;6.80;4.10;;;;;;;5.78;100.00;101069.38;4997570;22;20231;-73
2022/10/26 02:51:20;;;;;;;7.43;4.70;;;;;;;5.81;100.00;101063.34;5016452;28;20210;-72
2022/10/26 02:53:51;;;;;;;8.27;3.83;;;;;;;5.68;100.00;101065.03;5017265;28;20650;-72
2022/10/26 02:56:22;;;;;;;5.23;4.20;;;;;;;5.64;100.00;101063.31;5017790;28;20203;-72
2022/10/26 02:58:53;;;;;;;5.50;3.73;;;;;;;5.62;100.00;101059.88;5010241;28;20221;-73
2022/10/26 03:01:20;;;;;;;7.90;4.70;;;;;;;5.58;100.00;101060.75;4998982;28;20575;-72
2022/10/26 03:03:48;;;;;;;5.80;3.83;;;;;;;5.61;100.00;101059.03;4999894;28;20530;-71
2022/10/26 03:06:20;;;;;;;7.17;3.77;;;;;;;5.59;100.00;101067.63;5002610;28;20530;-71
2022/10/26 03:08:47;;;;;;;5.17;3.40;;;;;;;5.53;100.00;101073.66;4999526;28;20235;-72
2022/10/26 03:11:13;;;;;;;4.80;3.50;;;;;;;5.58;100.00;101071.09;4999019;28;20209;-71
2022/10/26 03:13:39;;;;;;;6.33;3.83;;;;;;;5.58;100.00;101071.09;5003208;28;20213;-73
2022/10/26 03:16:06;;;;;;;5.20;3.50;;;;;;;5.58;100.00;101068.50;5004183;28;20196;-73
2022/10/26 03:18:33;;;;;;;5.07;3.37;;;;;;;5.58;100.00;101069.34;4999380;28;20228;-72
2022/10/26 03:21:00;;;;;;;5.10;3.57;;;;;;;5.42;100.00;101070.19;5000028;28;20642;-72
2022/10/26 03:23:27;;;;;;;6.47;3.50;;;;;;;5.41;100.00;101078.81;4999390;28;20196;-71
2022/10/26 03:25:56;;;;;;;4.53;3.47;;;;;;;5.41;100.00;101071.91;4998887;28;20209;-73
2022/10/26 03:28:22;;;;;;;8.33;3.43;;;;;;;5.46;100.00;101071.91;4997918;28;20217;-72
2022/10/26 03:30:49;;;;;;;5.50;3.17;;;;;;;5.55;100.00;101071.06;5003920;28;20207;-72
2022/10/26 03:33:15;;;;;;;5.70;3.43;;;;;;;5.43;100.00;101071.91;4996287;28;20248;-71
2022/10/26 03:35:42;;;;;;;5.47;3.30;;;;;;;5.41;100.00;101076.22;4980609;28;20204;-73
2022/10/26 03:38:10;;;;;;;6.43;3.03;;;;;;;5.34;100.00;101080.50;4994710;28;20539;-72
2022/10/26 03:40:36;;;;;;;5.20;3.57;;;;;;;5.38;100.00;101077.09;5000343;28;20449;-73
2022/10/26 03:43:03;;;;;;;7.07;3.20;;;;;;;5.45;100.00;101076.25;5004487;28;20660;-72
2022/10/26 03:45:29;;;;;;;4.47;3.50;;;;;;;5.38;100.00;101078.78;5001054;28;20207;-72
2022/10/26 03:47:56;;;;;;;6.80;3.20;;;;;;;5.30;100.00;101077.03;5001418;28;20212;-74
2022/10/26 03:50:22;;;;;;;3.63;2.80;;;;;;;5.34;100.00;101077.91;4981073;28;20201;-75
2022/10/26 03:52:49;;;;;;;3.17;2.60;;;;;;;5.31;100.00;101075.31;4983662;28;20311;-75
2022/10/26 03:55:18;;;;;;;4.27;3.10;;;;;;;5.42;100.00;101075.38;4980339;28;20433;-74
2022/10/26 03:57:45;;;;;;;9.93;3.27;;;;;;;5.32;100.00;101070.16;4979669;28;20291;-74
2022/10/26 04:00:14;;;;;;;5.07;3.33;;;;;;;5.28;100.00;101067.56;4981119;28;20554;-74
2022/10/26 04:02:45;;;;;;;3.77;2.90;;;;;;;5.26;100.00;101074.47;4980480;28;20205;-73
2022/10/26 04:05:12;;;;;;;5.80;2.90;;;;;;;5.23;100.00;101075.31;4977307;28;20256;-74
2022/10/26 04:07:38;;;;;;;3.53;2.90;;;;;;;5.27;100.00;101079.63;4980529;28;20205;-72
2022/10/26 04:10:06;;;;;;;4.97;2.93;;;;;;;5.25;100.00;101083.06;4983408;28;20219;-74
2022/10/26 04:12:36;;;;;;;3.87;3.10;;;;;;;5.18;100.00;101074.44;4978933;28;20674;-73
2022/10/26 04:15:02;;;;;;;6.73;3.30;;;;;;;5.26;100.00;101077.06;4977632;28;20462;-74
2022/10/26 04:17:29;;;;;;;4.50;3.00;;;;;;;5.15;100.00;101076.13;4979154;28;20208;-74
2022/10/26 04:19:56;;;;;;;7.73;2.87;;;;;;;5.08;100.00;101081.31;4979471;28;20221;-75
2022/10/26 04:22:22;;;;;;;4.23;3.00;;;;;;;5.10;100.00;101082.16;4982207;28;20205;-74
2022/10/26 04:24:49;;;;;;;5.67;2.97;;;;;;;5.14;100.00;101075.28;4964483;28;20587;-73
2022/10/26 04:27:15;;;;;;;4.83;3.20;;;;;;;5.30;100.00;101086.53;4985621;28;20197;-73
2022/10/26 04:29:43;;;;;;;4.90;3.10;;;;;;;5.25;100.00;101077.91;4982172;28;20571;-74
2022/10/26 04:32:09;;;;;;;5.80;3.57;;;;;;;5.24;100.00;101079.63;4980389;28;20203;-74
2022/10/26 04:34:35;;;;;;;9.50;3.73;;;;;;;5.15;100.00;101076.13;4988465;28;20570;-73
2022/10/26 04:37:02;;;;;;;4.30;3.07;;;;;;;5.09;100.00;101077.84;4983623;28;20213;-75
2022/10/26 04:39:28;;;;;;;4.50;3.13;;;;;;;5.15;100.00;101078.72;4986623;28;20303;-74
2022/10/26 04:41:54;;;;;;;4.00;2.90;;;;;;;5.16;100.00;101080.47;4979169;28;20205;-74
2022/10/26 04:44:21;;;;;;;4.57;3.57;;;;;;;5.11;100.00;101078.72;4981746;28;20197;-74
2022/10/26 04:46:48;;;;;;;5.57;3.80;;;;;;;5.13;100.00;101070.97;4984705;28;20205;-75
2022/10/26 04:49:15;;;;;;;4.63;3.43;;;;;;;5.00;100.00;101072.66;4995443;28;20597;-73
2022/10/26 04:51:41;;;;;;;4.83;3.43;;;;;;;4.95;100.00;101070.91;5003619;28;20577;-75
2022/10/26 04:54:08;;;;;;;7.93;4.03;;;;;;;5.02;100.00;101067.47;4999515;28;20429;-75
2022/10/26 04:56:34;;;;;;;4.23;3.17;;;;;;;5.05;100.00;101073.53;5002333;28;20811;-74
2022/10/26 04:59:02;;;;;;;6.23;3.67;;;;;;;4.91;100.00;101070.88;5001285;28;20228;-75
2022/10/26 05:01:30;;;;;;;5.87;3.83;;;;;;;4.88;100.00;101075.19;5001112;28;20204;-74
2022/10/26 05:03:58;;;;;;;7.27;3.60;;;;;;;4.84;100.00;101071.72;5003647;28;20200;-74
2022/10/26 05:06:24;;;;;;;5.00;3.63;;;;;;;4.89;100.00;101066.56;4997644;28;20215;-74
2022/10/26 05:08:51;;;;;;;6.20;3.80;;;;;;;4.87;100.00;101076.91;5001490;28;20295;-74
2022/10/26 05:11:17;;;;;;;8.17;4.07;;;;;;;4.87;100.00;101074.31;4999070;28;20206;-74
2022/10/26 05:13:44;;;;;;;6.13;3.97;;;;;;;4.79;100.00;101075.13;4997101;28;20227;-74
2022/10/26 05:16:10;;;;;;;4.47;3.40;;;;;;;4.78;100.00;101073.41;5000987;28;20252;-75
2022/10/26 05:18:36;;;;;;;5.57;3.97;;;;;;;4.78;100.00;101075.97;5008128;28;20228;-74
2022/10/26 05:21:04;;;;;;;7.33;3.83;;;;;;;4.85;100.00;101076.00;5001822;28;20218;-73
2022/10/26 05:23:30;;;;;;;8.33;3.70;;;;;;;4.88;100.00;101076.03;5004871;28;20203;-74
2022/10/26 05:25:57;;;;;;;5.17;3.37;;;;;;;4.85;100.00;101076.00;4999898;28;20220;-75
2022/10/26 05:28:23;;;;;;;6.17;3.73;;;;;;;4.83;100.00;101071.72;5003019;28;20220;-73
2022/10/26 05:30:50;;;;;;;5.17;3.83;;;;;;;4.83;100.00;101067.41;5001692;28;20209;-75
2022/10/26 05:33:16;;;;;;;7.60;3.93;;;;;;;4.72;100.00;101071.66;5005878;28;20216;-74
2022/10/26 05:35:43;;;;;;;6.63;3.47;;;;;;;4.63;100.00;101069.88;4999078;28;20204;-75
2022/10/26 05:38:12;;;;;;;5.27;3.53;;;;;;;4.68;100.00;101069.94;5000846;28;20214;-74
2022/10/26 05:40:46;;;;;;;4.90;3.33;;;;;;;4.73;100.00;101073.38;5000585;28;20201;-73
2022/10/26 05:43:13;;;;;;;4.47;3.23;;;;;;;4.74;100.00;101075.09;4992650;28;20205;-75
2022/10/26 05:45:39;;;;;;;4.57;3.17;;;;;;;4.73;100.00;101074.25;4997335;28;20205;-75
2022/10/26 05:48:06;;;;;;;5.03;3.20;;;;;;;4.70;100.00;101081.97;4998688;28;20185;-74
2022/10/26 05:50:32;;;;;;;4.60;3.50;;;;;;;4.63;100.00;101076.78;4975549;28;21414;-75
2022/10/26 05:52:59;;;;;;;5.60;3.77;;;;;;;4.59;100.00;101085.34;4978670;28;20205;-75
2022/10/26 05:55:27;;;;;;;4.40;3.73;;;;;;;4.63;100.00;101085.38;4972951;28;20236;-74
2022/10/26 05:57:54;;;;;;;5.57;3.40;;;;;;;4.67;100.00;101083.69;4975817;28;20217;-75
2022/10/26 06:00:22;;;;;;;6.00;3.37;;;;;;;4.71;100.00;101080.25;4974912;28;21304;-73
2022/10/26 06:03:05;;;;;;;5.43;3.30;;;;;;;4.63;100.00;101087.13;4974298;28;20215;-74
2022/10/26 06:05:37;;;;;;;6.67;3.53;;;;;;;4.74;100.00;101093.19;4974126;28;20197;-74
2022/10/26 06:08:09;;;;;;;4.10;3.23;;;;;;;4.70;100.00;101101.78;4983376;28;20223;-75
2022/10/26 06:10:38;;;;;;;5.27;3.40;;;;;;;4.67;100.00;101094.88;4979287;28;20209;-75
2022/10/26 06:13:05;;;;;;;5.57;3.63;;;;;;;4.79;100.00;101098.41;4983128;28;20212;-73
2022/10/26 06:15:38;;;;;;;4.87;3.57;;;;;;;4.87;100.00;101110.50;4976713;28;20225;-75
2022/10/26 06:18:15;;;;;;;5.10;3.67;;;;;;;4.83;100.00;101100.97;4975199;28;20193;-74
2022/10/26 06:20:52;;;;;;;9.37;3.50;;;;;;;4.86;100.00;101105.31;4976771;28;20688;-73
2022/10/26 06:23:39;;;;;;;6.10;3.77;;;;;;;4.97;100.00;101106.22;4973945;28;20577;-74
2022/10/26 06:26:16;;;;;;;6.57;3.13;;;;;;;5.00;100.00;101107.97;4979025;28;20189;-75
2022/10/26 06:28:53;;;;;;;5.57;3.80;;;;;;;5.01;100.00;101109.69;4979984;28;20209;-75
2022/10/26 06:31:20;;;;;;;5.73;4.23;;;;;;;5.04;100.00;101113.16;4977108;28;20209;-74
2022/10/26 06:33:46;;;;;;;7.67;4.00;;;;;;;5.10;100.00;101110.59;4982015;28;20224;-75
2022/10/26 06:36:21;;;;;;;8.10;3.97;;;;;;;5.24;100.00;101109.78;4982008;28;20201;-73
2022/10/26 06:38:49;;;;;;;7.57;4.17;;;;;;;5.28;100.00;101109.78;4982689;28;20220;-74
2022/10/26 06:41:19;;;;;;;6.70;4.00;;;;;;;5.36;100.00;101112.41;4980841;28;20210;-74
2022/10/26 06:43:46;;;;;;;6.90;4.27;;;;;;;5.41;100.00;101120.19;4979766;28;20212;-75
2022/10/26 06:46:27;;;;;;;4.33;3.53;;;;;;;5.53;100.00;101109.00;4977431;28;20205;-73
2022/10/26 06:49:00;;;;;;;5.50;3.70;;;;;;;5.50;100.00;101113.31;4979781;28;20251;-75
2022/10/26 06:51:29;;;;;;;9.10;3.77;;;;;;;5.54;100.00;101114.19;4983321;28;20216;-75
2022/10/26 06:54:04;;;;;;;7.37;4.17;;;;;;;5.67;100.00;101113.34;4984650;28;20279;-75
2022/10/26 06:56:33;;;;;;;9.13;5.17;;;;;;;5.64;100.00;101121.09;4978406;28;20271;-74
2022/10/26 06:59:06;;;;;;;8.03;5.00;;;;;;;5.72;100.00;101112.47;4978711;28;20225;-73
2022/10/26 07:01:32;;;;;;;9.43;5.27;;;;;;;5.83;100.00;101116.81;4977719;28;20567;-75
2022/10/26 07:03:59;;;;;;;6.63;4.33;;;;;;;5.86;100.00;101122.00;4982097;28;20212;-75
2022/10/26 07:06:25;;;;;;;8.70;5.83;;;;;;;5.93;100.00;101122.88;4977720;28;20720;-74
2022/10/26 07:08:51;;;;;;;6.17;4.83;;;;;;;6.00;100.00;101121.19;4982521;28;20225;-74
2022/10/26 07:11:18;;;;;;;9.50;5.33;;;;;;;6.02;100.00;101128.09;4971454;28;21074;-74
2022/10/26 07:13:46;;;;;;;10.23;4.43;;;;;;;6.10;100.00;101120.31;4969115;28;20553;-73
2022/10/26 07:16:12;;;;;;;10.70;5.10;;;;;;;6.19;100.00;101124.63;4973049;28;20257;-74
2022/10/26 07:18:38;;;;;;;8.17;5.13;;;;;;;6.28;100.00;101123.75;4970467;28;20237;-73
2022/10/26 07:21:05;;;;;;;7.23;4.37;;;;;;;6.34;100.00;101116.00;4969976;28;20307;-73
2022/10/26 07:23:31;;;;;;;11.50;4.40;;;;;;;6.44;100.00;101118.59;4970282;28;20283;-73
2022/10/26 07:25:59;;;;;;;8.17;5.10;;;;;;;6.55;100.00;101125.47;4972612;28;20603;-75
2022/10/26 07:28:25;;;;;;;17.73;7.13;;;;;;;6.63;100.00;101132.38;4971642;28;20224;-73
2022/10/26 07:30:53;;;;;;;7.80;5.23;;;;;;;6.71;100.00;101121.13;4971868;28;20209;-74
2022/10/26 07:33:20;;;;;;;13.33;7.37;;;;;;;6.79;100.00;101129.75;4976863;28;21054;-75
2022/10/26 07:35:46;;;;;;;8.93;6.17;;;;;;;6.86;100.00;101138.34;4977666;28;20214;-75
2022/10/26 07:38:13;;;;;;;7.20;5.17;;;;;;;6.93;100.00;101140.06;4979206;28;20636;-75
2022/10/26 07:40:39;;;;;;;15.87;10.70;;;;;;;7.04;100.00;101143.50;4978345;28;20710;-74
2022/10/26 07:43:06;;;;;;;10.77;8.13;;;;;;;7.12;100.00;101140.88;4980593;28;20268;-74
2022/10/26 07:45:32;;;;;;;10.17;8.13;;;;;;;7.19;100.00;101140.88;4979389;28;20200;-74
2022/10/26 07:48:00;;;;;;;12.27;8.10;;;;;;;7.26;100.00;101144.28;4977852;28;20219;-75
2022/10/26 07:50:26;;;;;;;11.77;8.27;;;;;;;7.34;100.00;101144.25;4979210;28;20201;-73
2022/10/26 07:52:53;;;;;;;10.63;7.60;;;;;;;7.38;100.00;101145.97;4978503;28;20214;-75
2022/10/26 07:55:20;;;;;;;10.87;8.10;;;;;;;7.45;100.00;101144.22;4970807;28;20219;-74
2022/10/26 07:57:46;;;;;;;10.20;6.27;;;;;;;7.48;100.00;101145.06;4968780;28;20194;-74
2022/10/26 08:00:14;;;;;;;14.83;8.27;;;;;;;7.54;100.00;101138.97;4979003;28;20577;-74
2022/10/26 08:02:40;;;;;;;10.03;6.70;;;;;;;7.62;100.00;101141.53;4978502;28;20571;-75
2022/10/26 08:05:08;;;;;;;10.57;6.93;;;;;;;7.75;100.00;101140.56;4974018;28;20290;-75
2022/10/26 08:07:40;;;;;;;12.50;6.40;;;;;;;7.84;100.00;101144.84;4977162;28;20203;-73
2022/10/26 08:10:07;;;;;;;9.07;6.20;;;;;;;7.93;100.00;101142.19;4979602;28;21562;-75
2022/10/26 08:12:33;;;;;;;19.33;6.67;;;;;;;8.05;100.00;101149.88;4981477;28;20216;-75
2022/10/26 08:15:00;;;;;;;14.07;5.13;;;;;;;8.13;100.00;101145.50;4963644;28;20686;-74
2022/10/26 08:17:28;;;;;;;13.07;5.73;;;;;;;8.22;100.00;101143.72;4979488;28;20247;-75
2022/10/26 08:19:54;;;;;;;11.60;6.10;;;;;;;8.31;100.00;101148.81;4983645;28;20242;-75
2022/10/26 08:22:22;;;;;;;7.50;5.23;;;;;;;8.42;100.00;101151.31;4983695;28;20314;-72
2022/10/26 08:24:48;;;;;;;8.77;5.43;;;;;;;8.52;100.00;101153.00;4980943;28;20199;-71
2022/10/26 08:27:15;;;;;;;13.30;6.20;;;;;;;8.62;100.00;101159.84;4980891;28;20812;-75
2022/10/26 08:29:42;;;;;;;7.83;5.50;;;;;;;8.68;100.00;101164.13;4979413;28;21526;-75
2022/10/26 08:32:09;;;;;;;9.33;5.40;;;;;;;8.74;100.00;101161.44;4980374;28;20309;-75
2022/10/26 08:34:35;;;;;;;10.57;5.73;;;;;;;8.81;100.00;101157.06;4981518;28;20213;-75
2022/10/26 08:37:02;;;;;;;10.43;5.60;;;;;;;8.85;100.00;101162.22;4982128;28;20210;-75
2022/10/26 08:39:29;;;;;;;7.77;5.43;;;;;;;8.92;100.00;101157.81;4981012;28;20225;-75
2022/10/26 08:42:01;;;;;;;8.60;5.57;;;;;;;9.00;100.00;101155.97;4984597;28;20582;-75
2022/10/26 08:44:32;;;;;;;14.30;6.53;;;;;;;9.10;100.00;101154.13;4981439;28;20317;-75
2022/10/26 08:47:06;;;;;;;7.93;5.83;;;;;;;9.20;100.00;101149.66;4981043;28;20248;-75
2022/10/26 08:49:41;;;;;;;10.30;5.27;;;;;;;9.34;100.00;101149.50;5016748;22;20237;-71
2022/10/26 08:52:12;;;;;;;11.73;5.63;;;;;;;9.45;100.00;101151.09;5024391;28;20315;-72
2022/10/26 08:54:44;;;;;;;13.50;6.60;;;;;;;9.57;100.00;101155.28;5006818;28;20227;-71
2022/10/26 08:57:16;;;;;;;10.40;6.43;;;;;;;9.66;100.00;101146.50;5019783;28;20196;-71
2022/10/26 08:59:48;;;;;;;13.57;7.30;;;;;;;9.72;100.00;101146.38;5015824;28;20215;-71
2022/10/26 09:02:17;;;;;;;10.80;6.50;;;;;;;9.79;100.00;101147.16;4997469;28;21468;-72
2022/10/26 09:04:44;;;;;;;15.37;6.13;;;;;;;9.83;100.00;101146.22;5012868;28;20572;-72
2022/10/26 09:07:23;;;;;;;10.63;6.77;;;;;;;9.88;100.00;101141.81;5017367;28;20541;-72
2022/10/26 09:10:00;;;;;;;10.23;5.40;;;;;;;10.03;100.00;101145.94;5020341;28;20231;-71
2022/10/26 09:12:41;;;;;;;8.03;5.67;;;;;;;10.18;100.00;101147.44;5016853;28;20203;-72
2022/10/26 09:15:15;;;;;;;12.20;6.10;;;;;;;10.29;100.00;101142.03;5014396;28;20225;-71
2022/10/26 09:17:51;;;;;;;14.97;6.33;;;;;;;10.39;100.00;101135.81;5017290;28;20208;-71
2022/10/26 09:20:49;;;;;;;8.43;5.57;;;;;;;10.58;100.00;101146.81;5017253;28;20232;-72
2022/10/26 09:23:29;;;;;;;12.40;5.63;;;;;;;10.80;100.00;101145.53;5015080;28;20748;-71
2022/10/26 09:25:59;;;;;;;7.60;5.30;;;;;;;11.03;100.00;101144.22;5012096;28;20199;-71
2022/10/26 09:28:28;;;;;;;9.77;5.63;;;;;;;11.11;100.00;101144.91;5014873;28;20199;-72
2022/10/26 09:30:58;;;;;;;10.07;5.57;;;;;;;11.23;100.00;101145.56;5015380;28;20218;-72
2022/10/26 09:33:25;;;;;;;12.07;5.77;;;;;;;11.31;100.00;101141.91;5016128;28;20574;-72
2022/10/26 09:35:57;;;;;;;12.03;5.87;;;;;;;11.40;100.00;101145.19;5019438;28;20318;-72
2022/10/26 09:38:29;;;;;;;15.33;5.57;;;;;;;11.44;100.00;101132.06;5015816;28;20645;-72
2022/10/26 09:41:02;;;;;;;8.60;5.20;;;;;;;11.49;100.00;101135.44;5017610;28;20218;-72
2022/10/26 09:43:36;;;;;;;10.30;5.00;;;;;;;11.49;100.00;101131.97;5018992;28;20658;-72
2022/10/26 09:46:03;;;;;;;9.07;4.77;;;;;;;11.52;100.00;101134.50;5020189;28;20210;-72
2022/10/26 09:48:36;;;;;;;7.07;4.43;;;;;;;11.58;100.00;101138.75;5020883;28;20642;-71
2022/10/26 09:51:02;;;;;;;8.40;3.90;;;;;;;11.62;100.00;101140.38;5018080;28;20211;-71
2022/10/26 09:53:29;;;;;;;9.93;4.40;;;;;;;11.66;100.00;101137.69;5013237;28;20739;-72
2022/10/26 09:56:05;;;;;;;6.87;4.17;;;;;;;11.81;100.00;101144.28;5013642;28;20226;-70
2022/10/26 09:58:35;;;;;;;7.00;4.03;;;;;;;11.97;100.00;101142.22;5014150;28;20206;-72
2022/10/26 10:01:02;;;;;;;7.07;4.40;;;;;;;12.07;100.00;101145.47;5008951;28;20200;-72
2022/10/26 10:03:33;;;;;;;8.00;4.37;;;;;;;12.15;100.00;101147.91;5018759;28;20211;-72
2022/10/26 10:06:17;;;;;;;5.80;3.97;;;;;;;12.30;100.00;101147.53;5014675;28;21093;-72
2022/10/26 10:08:45;;;;;;;10.20;4.20;;;;;;;12.31;100.00;101139.66;5021120;28;20513;-71
2022/10/26 10:11:14;;;;;;;6.30;3.97;;;;;;;12.42;100.00;101138.53;5017987;28;20283;-72
2022/10/26 10:13:43;;;;;;;9.23;4.50;;;;;;;12.53;100.00;101136.47;5020270;28;20202;-71
2022/10/26 10:16:21;;;;;;;6.00;3.97;;;;;;;12.71;100.00;101134.28;5002778;28;20274;-71
2022/10/26 10:18:53;;;;;;;9.70;4.17;;;;;;;12.88;100.00;101137.28;5012920;28;20332;-72
2022/10/26 10:21:20;;;;;;;10.30;4.33;;;;;;;12.95;100.00;101144.06;5015798;28;20203;-72
2022/10/26 10:23:50;;;;;;;9.63;4.53;;;;;;;13.03;100.00;101136.00;4999323;28;20552;-72
2022/10/26 10:26:18;;;;;;;14.73;5.10;;;;;;;13.08;100.00;101141.97;5011524;28;20243;-72
2022/10/26 10:28:56;;;;;;;9.20;4.07;;;;;;;13.16;100.00;101147.00;5012004;28;20220;-72
2022/10/26 10:31:28;;;;;;;8.30;4.10;;;;;;;13.26;100.00;101141.44;5015658;28;20231;-72
2022/10/26 10:33:54;;;;;;;8.37;4.53;;;;;;;13.37;100.00;101135.06;5014581;28;20223;-72
2022/10/26 10:36:23;;;;;;;11.73;4.60;;;;;;;13.42;100.00;101143.63;5018762;28;20223;-72
2022/10/26 10:38:51;;;;;;;9.67;4.23;;;;;;;13.47;100.00;101141.72;5013197;28;20577;-72
2022/10/26 10:41:26;;;;;;;8.00;4.17;;;;;;;13.53;100.00;101149.41;5014328;28;20196;-72
2022/10/26 10:43:55;;;;;;;7.17;4.60;;;;;;;13.58;100.00;101152.75;5016687;28;20198;-72
2022/10/26 10:46:26;;;;;;;9.27;4.50;;;;;;;13.58;100.00;101151.91;5014571;28;20204;-72
2022/10/26 10:49:00;;;;;;;9.70;4.33;;;;;;;13.65;100.00;101158.69;5007296;28;20232;-72
2022/10/26 10:51:29;;;;;;;10.00;4.23;;;;;;;13.68;100.00;101150.69;5013209;28;20536;-72
2022/10/26 10:53:55;;;;;;;8.33;3.77;;;;;;;13.75;100.00;101143.50;5010115;28;20238;-72
2022/10/26 10:56:32;;;;;;;9.03;4.03;;;;;;;13.87;100.00;101143.13;4998410;28;20229;-71
2022/10/26 10:59:10;;;;;;;8.70;3.80;;;;;;;13.96;100.00;101141.97;5011406;28;20231;-72
2022/10/26 11:01:40;;;;;;;5.27;3.50;;;;;;;14.04;100.00;101144.38;5022314;28;20202;-71
2022/10/26 11:04:26;;;;;;;5.83;3.23;;;;;;;14.03;100.00;101146.13;5010055;28;20580;-72
2022/10/26 11:06:57;;;;;;;5.27;3.10;;;;;;;14.05;100.00;101146.06;5012031;28;20203;-71
2022/10/26 11:09:27;;;;;;;8.10;2.93;;;;;;;14.07;100.00;101137.28;5008701;28;20224;-71
2022/10/26 11:12:01;;;;;;;8.03;2.50;;;;;;;14.14;100.00;101141.41;5006619;28;20201;-72
2022/10/26 11:14:31;;;;;;;3.83;2.13;;;;;;;14.27;100.00;101147.09;5002578;28;20667;-72
2022/10/26 11:17:06;;;;;;;4.47;1.80;;;;;;;14.34;100.00;101145.13;5009153;28;20224;-71
2022/10/26 11:19:41;;;;;;;4.77;1.70;;;;;;;14.48;100.00;101149.91;5015825;28;20315;-72
2022/10/26 11:22:14;;;;;;;3.50;1.40;;;;;;;14.57;100.00;101154.84;5009361;28;20207;-71
2022/10/26 11:24:44;;;;;;;1.90;1.20;;;;;;;14.64;100.00;101145.88;5011718;28;20209;-72
2022/10/26 11:27:17;;;;;;;2.13;1.40;;;;;;;14.71;100.00;101147.38;4997612;28;20304;-72
2022/10/26 11:29:49;;;;;;;1.60;1.47;;;;;;;14.78;100.00;101145.38;5012412;28;20693;-72
2022/10/26 11:32:21;;;;;;;1.50;1.33;;;;;;;14.75;100.00;101150.75;5014425;28;20827;-72
2022/10/26 11:34:54;;;;;;;5.27;1.30;;;;;;;14.73;100.00;101135.03;5016861;28;20203;-72